Hudson Bay, Canada
Current Conditions -  °F | °C
As of 2:00 PM on Wednesday 28 Jan 2015 (Local Time) from CYBU Reporting Station
Overcast Overcast  
Wind Chill: -3°   Ceiling: 1700
Heat Index:   Visibility: 9mi
Dew Point:   Wind: 6mph
Humidity: 85%   Direction: 290°WNW
Pressure: 30.14"   Gusts: NA
Location:  52.86°N, 102.39°W
Report Text: CYBU 282000Z AUTO 29005KT 9SM OVC017 M14/M16 A3014 RMK SLP238
Loading
Personal Weather Stations






























Interactive Weather Map New forecast layout! Learn more

10-Day Weather Forecast

Advertisements
Track Severe Weather on mobile